sensor_id;sensor_type;location;lat;lon;timestamp;pressure;altitude;pressure_sealevel;temperature;humidity
75192;BME280;63771;52.580;9.734;2023-04-24T00:01:45;99705.16;;;11.66;85.01
75192;BME280;63771;52.580;9.734;2023-04-24T00:04:10;99709.38;;;11.65;84.69
75192;BME280;63771;52.580;9.734;2023-04-24T00:06:36;99711.13;;;11.66;84.55
75192;BME280;63771;52.580;9.734;2023-04-24T00:09:03;99701.78;;;11.67;84.28
75192;BME280;63771;52.580;9.734;2023-04-24T00:11:28;99701.78;;;11.67;84.29
75192;BME280;63771;52.580;9.734;2023-04-24T00:13:54;99703.38;;;11.65;83.84
75192;BME280;63771;52.580;9.734;2023-04-24T00:16:19;99702.31;;;11.61;83.80
75192;BME280;63771;52.580;9.734;2023-04-24T00:18:45;99693.69;;;11.59;83.89
75192;BME280;63771;52.580;9.734;2023-04-24T00:21:11;99701.94;;;11.55;83.57
75192;BME280;63771;52.580;9.734;2023-04-24T00:23:36;99704.56;;;11.57;83.35
75192;BME280;63771;52.580;9.734;2023-04-24T00:26:01;99698.31;;;11.52;83.63
75192;BME280;63771;52.580;9.734;2023-04-24T00:28:27;99699.88;;;11.49;83.56
75192;BME280;63771;52.580;9.734;2023-04-24T00:30:52;99696.25;;;11.46;83.57
75192;BME280;63771;52.580;9.734;2023-04-24T00:33:17;99696.97;;;11.43;83.48
75192;BME280;63771;52.580;9.734;2023-04-24T00:35:43;99700.19;;;11.41;83.36
75192;BME280;63771;52.580;9.734;2023-04-24T00:38:08;99690.69;;;11.38;83.47
75192;BME280;63771;52.580;9.734;2023-04-24T00:40:33;99694.00;;;11.37;83.45
75192;BME280;63771;52.580;9.734;2023-04-24T00:42:59;99687.13;;;11.36;83.36
75192;BME280;63771;52.580;9.734;2023-04-24T00:45:25;99688.53;;;11.31;83.45
75192;BME280;63771;52.580;9.734;2023-04-24T00:47:52;99684.22;;;11.30;83.57
75192;BME280;63771;52.580;9.734;2023-04-24T00:50:17;99682.25;;;11.26;83.70
75192;BME280;63771;52.580;9.734;2023-04-24T00:52:43;99688.16;;;11.25;83.16
75192;BME280;63771;52.580;9.734;2023-04-24T00:55:08;99675.00;;;11.19;83.51
75192;BME280;63771;52.580;9.734;2023-04-24T00:57:34;99686.31;;;11.22;83.38
75192;BME280;63771;52.580;9.734;2023-04-24T00:59:59;99685.41;;;11.22;83.14
75192;BME280;63771;52.580;9.734;2023-04-24T01:02:25;99699.06;;;11.22;83.21
75192;BME280;63771;52.580;9.734;2023-04-24T01:04:51;99690.50;;;11.22;83.11
75192;BME280;63771;52.580;9.734;2023-04-24T01:07:19;99694.84;;;11.23;82.96
75192;BME280;63771;52.580;9.734;2023-04-24T01:09:47;99697.56;;;11.26;82.45
75192;BME280;63771;52.580;9.734;2023-04-24T01:12:14;99701.28;;;11.31;81.42
75192;BME280;63771;52.580;9.734;2023-04-24T01:14:39;99709.03;;;11.33;80.88
75192;BME280;63771;52.580;9.734;2023-04-24T01:17:05;99691.44;;;11.37;80.13
75192;BME280;63771;52.580;9.734;2023-04-24T01:19:30;99699.31;;;11.40;79.89
75192;BME280;63771;52.580;9.734;2023-04-24T01:21:58;99690.84;;;11.41;79.29
75192;BME280;63771;52.580;9.734;2023-04-24T01:24:23;99698.53;;;11.41;79.22
75192;BME280;63771;52.580;9.734;2023-04-24T01:26:48;99703.63;;;11.41;78.52
75192;BME280;63771;52.580;9.734;2023-04-24T01:29:14;99698.34;;;11.38;78.82
75192;BME280;63771;52.580;9.734;2023-04-24T01:31:40;99694.81;;;11.36;79.15
75192;BME280;63771;52.580;9.734;2023-04-24T01:34:05;99702.88;;;11.29;79.23
75192;BME280;63771;52.580;9.734;2023-04-24T01:36:31;99699.31;;;11.27;79.23
75192;BME280;63771;52.580;9.734;2023-04-24T01:38:57;99685.31;;;11.20;78.67
75192;BME280;63771;52.580;9.734;2023-04-24T01:41:23;99700.34;;;11.16;78.76
75192;BME280;63771;52.580;9.734;2023-04-24T01:43:48;99693.19;;;11.10;78.64
75192;BME280;63771;52.580;9.734;2023-04-24T01:46:14;99703.09;;;11.06;78.97
75192;BME280;63771;52.580;9.734;2023-04-24T01:48:40;99705.25;;;11.00;79.27
75192;BME280;63771;52.580;9.734;2023-04-24T01:51:06;99707.63;;;10.96;78.86
75192;BME280;63771;52.580;9.734;2023-04-24T01:53:31;99706.34;;;10.90;79.15
75192;BME280;63771;52.580;9.734;2023-04-24T01:55:57;99714.63;;;10.86;79.12
75192;BME280;63771;52.580;9.734;2023-04-24T01:58:22;99713.31;;;10.79;79.30
75192;BME280;63771;52.580;9.734;2023-04-24T02:00:47;99706.84;;;10.71;79.44
75192;BME280;63771;52.580;9.734;2023-04-24T02:03:13;99709.19;;;10.68;79.55
75192;BME280;63771;52.580;9.734;2023-04-24T02:05:38;99710.56;;;10.63;79.63
75192;BME280;63771;52.580;9.734;2023-04-24T02:08:03;99708.59;;;10.59;80.01
75192;BME280;63771;52.580;9.734;2023-04-24T02:10:29;99706.72;;;10.56;79.94
75192;BME280;63771;52.580;9.734;2023-04-24T02:12:54;99715.84;;;10.53;80.22
75192;BME280;63771;52.580;9.734;2023-04-24T02:15:19;99706.44;;;10.52;80.03
75192;BME280;63771;52.580;9.734;2023-04-24T02:17:45;99702.31;;;10.54;80.23
75192;BME280;63771;52.580;9.734;2023-04-24T02:20:10;99700.53;;;10.53;80.40
75192;BME280;63771;52.580;9.734;2023-04-24T02:22:35;99697.31;;;10.55;80.30
75192;BME280;63771;52.580;9.734;2023-04-24T02:25:01;99692.09;;;10.54;80.43
75192;BME280;63771;52.580;9.734;2023-04-24T02:27:27;99698.00;;;10.53;80.36
75192;BME280;63771;52.580;9.734;2023-04-24T02:29:52;99695.25;;;10.50;80.39
75192;BME280;63771;52.580;9.734;2023-04-24T02:32:17;99692.50;;;10.47;80.30
75192;BME280;63771;52.580;9.734;2023-04-24T02:34:43;99692.19;;;10.42;80.84
75192;BME280;63771;52.580;9.734;2023-04-24T02:37:08;99685.03;;;10.36;80.44
75192;BME280;63771;52.580;9.734;2023-04-24T02:39:33;99683.94;;;10.33;80.35
75192;BME280;63771;52.580;9.734;2023-04-24T02:41:59;99681.06;;;10.28;80.48
75192;BME280;63771;52.580;9.734;2023-04-24T02:44:25;99676.41;;;10.23;80.33
75192;BME280;63771;52.580;9.734;2023-04-24T02:46:50;99682.13;;;10.18;80.41
75192;BME280;63771;52.580;9.734;2023-04-24T02:49:15;99672.59;;;10.16;80.82
75192;BME280;63771;52.580;9.734;2023-04-24T02:51:40;99681.03;;;10.15;80.70
75192;BME280;63771;52.580;9.734;2023-04-24T02:54:07;99669.06;;;10.14;80.43
75192;BME280;63771;52.580;9.734;2023-04-24T02:56:34;99675.38;;;10.19;80.27
75192;BME280;63771;52.580;9.734;2023-04-24T02:58:59;99671.47;;;10.24;79.91
75192;BME280;63771;52.580;9.734;2023-04-24T03:01:24;99669.91;;;10.26;79.49
75192;BME280;63771;52.580;9.734;2023-04-24T03:03:50;99669.81;;;10.25;79.55
75192;BME280;63771;52.580;9.734;2023-04-24T03:06:15;99665.50;;;10.24;79.12
75192;BME280;63771;52.580;9.734;2023-04-24T03:08:40;99655.63;;;10.16;78.62
75192;BME280;63771;52.580;9.734;2023-04-24T03:11:06;99667.59;;;10.17;78.52
75192;BME280;63771;52.580;9.734;2023-04-24T03:13:31;99663.97;;;10.14;78.61
75192;BME280;63771;52.580;9.734;2023-04-24T03:15:56;99662.22;;;10.13;78.47
75192;BME280;63771;52.580;9.734;2023-04-24T03:18:22;99656.03;;;10.09;78.16
75192;BME280;63771;52.580;9.734;2023-04-24T03:20:47;99658.47;;;10.08;78.21
75192;BME280;63771;52.580;9.734;2023-04-24T03:23:13;99661.03;;;10.08;77.86
75192;BME280;63771;52.580;9.734;2023-04-24T03:25:38;99661.78;;;10.07;78.11
75192;BME280;63771;52.580;9.734;2023-04-24T03:28:04;99661.69;;;10.05;77.65
75192;BME280;63771;52.580;9.734;2023-04-24T03:30:29;99651.72;;;10.08;77.71
75192;BME280;63771;52.580;9.734;2023-04-24T03:32:55;99660.34;;;10.10;77.39
75192;BME280;63771;52.580;9.734;2023-04-24T03:35:20;99659.19;;;10.18;76.88
75192;BME280;63771;52.580;9.734;2023-04-24T03:37:47;99662.00;;;10.23;76.16
75192;BME280;63771;52.580;9.734;2023-04-24T03:40:12;99671.78;;;10.29;75.72
75192;BME280;63771;52.580;9.734;2023-04-24T03:42:37;99666.22;;;10.34;74.42
75192;BME280;63771;52.580;9.734;2023-04-24T03:45:03;99663.75;;;10.36;74.27
75192;BME280;63771;52.580;9.734;2023-04-24T03:47:28;99668.16;;;10.38;73.96
75192;BME280;63771;52.580;9.734;2023-04-24T03:49:53;99665.59;;;10.38;74.63
75192;BME280;63771;52.580;9.734;2023-04-24T03:52:20;99671.50;;;10.37;74.20
75192;BME280;63771;52.580;9.734;2023-04-24T03:54:46;99669.72;;;10.36;74.50
75192;BME280;63771;52.580;9.734;2023-04-24T03:57:11;99659.44;;;10.35;74.46
75192;BME280;63771;52.580;9.734;2023-04-24T03:59:36;99655.00;;;10.32;74.23
75192;BME280;63771;52.580;9.734;2023-04-24T04:02:02;99648.84;;;10.29;74.22
75192;BME280;63771;52.580;9.734;2023-04-24T04:04:27;99645.28;;;10.27;74.44
75192;BME280;63771;52.580;9.734;2023-04-24T04:06:53;99649.25;;;10.23;74.49
75192;BME280;63771;52.580;9.734;2023-04-24T04:09:18;99643.44;;;10.24;74.62
75192;BME280;63771;52.580;9.734;2023-04-24T04:11:43;99648.28;;;10.21;74.82
75192;BME280;63771;52.580;9.734;2023-04-24T04:14:09;99655.53;;;10.15;74.82
75192;BME280;63771;52.580;9.734;2023-04-24T04:16:34;99659.66;;;10.13;74.99
75192;BME280;63771;52.580;9.734;2023-04-24T04:19:01;99661.91;;;10.08;75.08
75192;BME280;63771;52.580;9.734;2023-04-24T04:21:28;99665.03;;;10.04;75.06
75192;BME280;63771;52.580;9.734;2023-04-24T04:23:53;99672.38;;;10.00;75.25
75192;BME280;63771;52.580;9.734;2023-04-24T04:26:18;99678.81;;;9.94;75.57
75192;BME280;63771;52.580;9.734;2023-04-24T04:28:46;99681.94;;;9.90;75.79
75192;BME280;63771;52.580;9.734;2023-04-24T04:31:12;99679.06;;;9.86;75.71
75192;BME280;63771;52.580;9.734;2023-04-24T04:33:38;99678.00;;;9.82;75.82
75192;BME280;63771;52.580;9.734;2023-04-24T04:36:04;99677.59;;;9.76;76.09
75192;BME280;63771;52.580;9.734;2023-04-24T04:38:30;99674.72;;;9.72;76.51
75192;BME280;63771;52.580;9.734;2023-04-24T04:40:55;99672.84;;;9.69;76.80
75192;BME280;63771;52.580;9.734;2023-04-24T04:43:22;99662.47;;;9.66;76.71
75192;BME280;63771;52.580;9.734;2023-04-24T04:45:48;99665.00;;;9.66;77.29
75192;BME280;63771;52.580;9.734;2023-04-24T04:48:13;99659.78;;;9.64;76.92
75192;BME280;63771;52.580;9.734;2023-04-24T04:50:39;99658.91;;;9.64;77.12
75192;BME280;63771;52.580;9.734;2023-04-24T04:53:04;99660.66;;;9.65;77.42
75192;BME280;63771;52.580;9.734;2023-04-24T04:55:30;99663.22;;;9.65;77.46
75192;BME280;63771;52.580;9.734;2023-04-24T04:57:56;99672.53;;;9.64;77.90
75192;BME280;63771;52.580;9.734;2023-04-24T05:00:21;99674.19;;;9.64;77.79
75192;BME280;63771;52.580;9.734;2023-04-24T05:02:49;99667.09;;;9.60;77.96
75192;BME280;63771;52.580;9.734;2023-04-24T05:05:14;99670.19;;;9.67;78.15
75192;BME280;63771;52.580;9.734;2023-04-24T05:07:42;99664.41;;;9.70;78.32
75192;BME280;63771;52.580;9.734;2023-04-24T05:10:07;99666.00;;;9.81;77.96
75192;BME280;63771;52.580;9.734;2023-04-24T05:12:33;99669.41;;;9.93;77.95
75192;BME280;63771;52.580;9.734;2023-04-24T05:14:58;99661.59;;;10.04;77.71
75192;BME280;63771;52.580;9.734;2023-04-24T05:17:23;99667.72;;;10.19;77.86
75192;BME280;63771;52.580;9.734;2023-04-24T05:19:49;99680.41;;;10.31;77.05
75192;BME280;63771;52.580;9.734;2023-04-24T05:22:14;99671.88;;;10.43;76.35
75192;BME280;63771;52.580;9.734;2023-04-24T05:24:40;99679.34;;;10.54;76.30
75192;BME280;63771;52.580;9.734;2023-04-24T05:27:05;99672.28;;;10.63;76.16
75192;BME280;63771;52.580;9.734;2023-04-24T05:29:31;99678.78;;;10.71;76.04
75192;BME280;63771;52.580;9.734;2023-04-24T05:31:57;99679.34;;;10.80;76.08
75192;BME280;63771;52.580;9.734;2023-04-24T05:34:22;99679.78;;;10.86;75.71
75192;BME280;63771;52.580;9.734;2023-04-24T05:36:48;99677.69;;;10.94;75.47
75192;BME280;63771;52.580;9.734;2023-04-24T05:39:13;99682.50;;;11.03;75.12
75192;BME280;63771;52.580;9.734;2023-04-24T05:41:39;99687.28;;;11.11;74.91
75192;BME280;63771;52.580;9.734;2023-04-24T05:44:04;99681.66;;;11.17;74.91
75192;BME280;63771;52.580;9.734;2023-04-24T05:46:30;99686.69;;;11.29;75.03
75192;BME280;63771;52.580;9.734;2023-04-24T05:48:55;99683.63;;;11.34;74.29
75192;BME280;63771;52.580;9.734;2023-04-24T05:51:21;99691.06;;;11.44;74.30
75192;BME280;63771;52.580;9.734;2023-04-24T05:53:46;99686.50;;;11.54;73.89
75192;BME280;63771;52.580;9.734;2023-04-24T05:56:11;99686.09;;;11.61;73.09
75192;BME280;63771;52.580;9.734;2023-04-24T05:58:37;99680.38;;;11.65;73.19
75192;BME280;63771;52.580;9.734;2023-04-24T06:01:03;99675.72;;;11.72;73.51
75192;BME280;63771;52.580;9.734;2023-04-24T06:03:28;99685.75;;;11.83;73.41
75192;BME280;63771;52.580;9.734;2023-04-24T06:05:53;99685.31;;;11.90;72.67
75192;BME280;63771;52.580;9.734;2023-04-24T06:08:19;99683.03;;;11.94;72.52
75192;BME280;63771;52.580;9.734;2023-04-24T06:10:44;99685.94;;;12.00;72.78
75192;BME280;63771;52.580;9.734;2023-04-24T06:13:10;99684.81;;;12.10;72.57
75192;BME280;63771;52.580;9.734;2023-04-24T06:15:36;99690.31;;;12.16;72.14
75192;BME280;63771;52.580;9.734;2023-04-24T06:18:02;99679.56;;;12.22;71.69
75192;BME280;63771;52.580;9.734;2023-04-24T06:20:28;99691.63;;;12.24;71.01
75192;BME280;63771;52.580;9.734;2023-04-24T06:22:53;99685.91;;;12.28;70.00
75192;BME280;63771;52.580;9.734;2023-04-24T06:25:19;99683.63;;;12.33;69.66
75192;BME280;63771;52.580;9.734;2023-04-24T06:27:44;99685.03;;;12.43;70.07
75192;BME280;63771;52.580;9.734;2023-04-24T06:30:10;99689.09;;;12.54;68.13
75192;BME280;63771;52.580;9.734;2023-04-24T06:32:35;99689.44;;;12.60;67.30
75192;BME280;63771;52.580;9.734;2023-04-24T06:35:00;99682.38;;;12.56;67.22
75192;BME280;63771;52.580;9.734;2023-04-24T06:37:26;99678.13;;;12.57;66.49
75192;BME280;63771;52.580;9.734;2023-04-24T06:39:51;99689.97;;;12.54;67.46
75192;BME280;63771;52.580;9.734;2023-04-24T06:42:16;99697.63;;;12.54;66.07
75192;BME280;63771;52.580;9.734;2023-04-24T06:44:42;99691.38;;;12.49;66.88
75192;BME280;63771;52.580;9.734;2023-04-24T06:47:08;99694.09;;;12.52;67.12
75192;BME280;63771;52.580;9.734;2023-04-24T06:49:37;99695.41;;;12.31;66.41
75192;BME280;63771;52.580;9.734;2023-04-24T06:52:03;99712.00;;;12.23;67.02
75192;BME280;63771;52.580;9.734;2023-04-24T06:54:29;99719.22;;;12.15;67.46
75192;BME280;63771;52.580;9.734;2023-04-24T06:56:54;99718.50;;;12.03;66.27
75192;BME280;63771;52.580;9.734;2023-04-24T06:59:20;99725.31;;;11.89;65.78
75192;BME280;63771;52.580;9.734;2023-04-24T07:01:45;99740.97;;;11.81;66.03
75192;BME280;63771;52.580;9.734;2023-04-24T07:04:11;99730.84;;;11.69;66.37
75192;BME280;63771;52.580;9.734;2023-04-24T07:06:38;99723.25;;;11.56;66.32
75192;BME280;63771;52.580;9.734;2023-04-24T07:09:04;99712.25;;;11.57;66.69
75192;BME280;63771;52.580;9.734;2023-04-24T07:11:29;99722.53;;;11.58;67.24
75192;BME280;63771;52.580;9.734;2023-04-24T07:13:55;99723.63;;;11.62;65.61
75192;BME280;63771;52.580;9.734;2023-04-24T07:16:21;99739.53;;;11.71;65.68
75192;BME280;63771;52.580;9.734;2023-04-24T07:18:46;99743.25;;;11.76;66.24
75192;BME280;63771;52.580;9.734;2023-04-24T07:21:11;99746.75;;;11.78;66.51
75192;BME280;63771;52.580;9.734;2023-04-24T07:23:37;99744.13;;;11.76;65.85
75192;BME280;63771;52.580;9.734;2023-04-24T07:26:02;99730.47;;;11.76;66.93
75192;BME280;63771;52.580;9.734;2023-04-24T07:28:28;99741.16;;;11.84;65.84
75192;BME280;63771;52.580;9.734;2023-04-24T07:30:56;99740.84;;;11.92;66.53
75192;BME280;63771;52.580;9.734;2023-04-24T07:33:22;99740.41;;;11.99;66.08
75192;BME280;63771;52.580;9.734;2023-04-24T07:35:47;99746.69;;;12.05;65.90
75192;BME280;63771;52.580;9.734;2023-04-24T07:38:13;99748.50;;;12.20;65.83
75192;BME280;63771;52.580;9.734;2023-04-24T07:40:38;99750.25;;;12.21;64.10
75192;BME280;63771;52.580;9.734;2023-04-24T07:43:03;99748.41;;;12.19;64.07
75192;BME280;63771;52.580;9.734;2023-04-24T07:45:29;99758.19;;;12.26;65.09
75192;BME280;63771;52.580;9.734;2023-04-24T07:47:54;99753.63;;;12.35;64.10
75192;BME280;63771;52.580;9.734;2023-04-24T07:50:20;99755.50;;;12.38;63.21
75192;BME280;63771;52.580;9.734;2023-04-24T07:52:45;99762.75;;;12.45;62.94
75192;BME280;63771;52.580;9.734;2023-04-24T07:55:11;99779.75;;;12.44;61.44
75192;BME280;63771;52.580;9.734;2023-04-24T07:57:36;99786.28;;;12.39;62.07
75192;BME280;63771;52.580;9.734;2023-04-24T08:00:03;99782.00;;;12.25;61.02
75192;BME280;63771;52.580;9.734;2023-04-24T08:02:28;99777.41;;;12.19;61.11
75192;BME280;63771;52.580;9.734;2023-04-24T08:04:54;99768.00;;;12.18;61.32
75192;BME280;63771;52.580;9.734;2023-04-24T08:07:20;99770.97;;;12.11;62.45
75192;BME280;63771;52.580;9.734;2023-04-24T08:09:45;99777.00;;;11.98;62.41
75192;BME280;63771;52.580;9.734;2023-04-24T08:12:11;99782.69;;;12.08;63.91
75192;BME280;63771;52.580;9.734;2023-04-24T08:14:36;99786.56;;;12.16;63.93
75192;BME280;63771;52.580;9.734;2023-04-24T08:17:01;99786.84;;;12.20;63.35
75192;BME280;63771;52.580;9.734;2023-04-24T08:19:27;99787.13;;;12.25;63.93
75192;BME280;63771;52.580;9.734;2023-04-24T08:21:52;99789.28;;;12.32;63.32
75192;BME280;63771;52.580;9.734;2023-04-24T08:24:18;99789.81;;;12.41;63.80
75192;BME280;63771;52.580;9.734;2023-04-24T08:26:43;99803.59;;;12.43;63.84
75192;BME280;63771;52.580;9.734;2023-04-24T08:29:08;99795.13;;;12.44;64.38
75192;BME280;63771;52.580;9.734;2023-04-24T08:31:34;99798.56;;;12.45;63.12
75192;BME280;63771;52.580;9.734;2023-04-24T08:34:00;99800.22;;;12.44;63.46
75192;BME280;63771;52.580;9.734;2023-04-24T08:36:25;99809.47;;;12.42;63.30
75192;BME280;63771;52.580;9.734;2023-04-24T08:38:51;99798.88;;;12.36;62.79
75192;BME280;63771;52.580;9.734;2023-04-24T08:41:18;99804.28;;;12.41;63.51
75192;BME280;63771;52.580;9.734;2023-04-24T08:43:45;99809.38;;;12.41;62.59
75192;BME280;63771;52.580;9.734;2023-04-24T08:46:13;99801.03;;;12.43;63.60
75192;BME280;63771;52.580;9.734;2023-04-24T08:48:39;99795.47;;;12.50;64.00
75192;BME280;63771;52.580;9.734;2023-04-24T08:51:07;99804.50;;;12.59;62.46
75192;BME280;63771;52.580;9.734;2023-04-24T08:53:33;99792.94;;;12.65;61.98
75192;BME280;63771;52.580;9.734;2023-04-24T08:55:58;99797.72;;;12.74;62.86
75192;BME280;63771;52.580;9.734;2023-04-24T08:58:27;99802.53;;;12.84;61.69
75192;BME280;63771;52.580;9.734;2023-04-24T09:00:56;99796.72;;;12.87;61.44
75192;BME280;63771;52.580;9.734;2023-04-24T09:03:23;99791.09;;;12.92;61.30
75192;BME280;63771;52.580;9.734;2023-04-24T09:05:48;99779.59;;;13.00;60.58
75192;BME280;63771;52.580;9.734;2023-04-24T09:08:17;99811.91;;;12.98;60.03
75192;BME280;63771;52.580;9.734;2023-04-24T09:10:43;99804.06;;;12.95;60.40
75192;BME280;63771;52.580;9.734;2023-04-24T09:13:09;99800.44;;;12.92;60.78
75192;BME280;63771;52.580;9.734;2023-04-24T09:15:39;99804.34;;;12.85;61.64
75192;BME280;63771;52.580;9.734;2023-04-24T09:18:06;99807.50;;;12.81;61.44
75192;BME280;63771;52.580;9.734;2023-04-24T09:20:31;99803.19;;;12.80;61.57
75192;BME280;63771;52.580;9.734;2023-04-24T09:22:57;99808.56;;;12.85;62.70
75192;BME280;63771;52.580;9.734;2023-04-24T09:25:31;99811.03;;;12.83;60.92
75192;BME280;63771;52.580;9.734;2023-04-24T09:28:00;99792.06;;;12.65;61.56
75192;BME280;63771;52.580;9.734;2023-04-24T09:30:26;99815.34;;;12.84;62.53
75192;BME280;63771;52.580;9.734;2023-04-24T09:33:18;99815.19;;;12.96;62.71
75192;BME280;63771;52.580;9.734;2023-04-24T09:35:51;99803.53;;;13.01;60.70
75192;BME280;63771;52.580;9.734;2023-04-24T09:38:17;99800.69;;;13.11;60.31
75192;BME280;63771;52.580;9.734;2023-04-24T09:40:43;99802.53;;;13.14;59.43
75192;BME280;63771;52.580;9.734;2023-04-24T09:43:11;99796.22;;;13.22;60.42
75192;BME280;63771;52.580;9.734;2023-04-24T09:45:38;99804.09;;;13.41;61.27
75192;BME280;63771;52.580;9.734;2023-04-24T09:48:04;99815.00;;;13.37;58.78
75192;BME280;63771;52.580;9.734;2023-04-24T09:50:31;99800.78;;;13.42;58.75
75192;BME280;63771;52.580;9.734;2023-04-24T09:52:59;99811.03;;;13.42;58.57
75192;BME280;63771;52.580;9.734;2023-04-24T09:55:26;99815.28;;;13.42;58.97
75192;BME280;63771;52.580;9.734;2023-04-24T09:57:54;99804.09;;;13.41;59.16
75192;BME280;63771;52.580;9.734;2023-04-24T10:00:30;99796.88;;;13.34;59.58
75192;BME280;63771;52.580;9.734;2023-04-24T10:03:00;99811.72;;;13.40;59.50
75192;BME280;63771;52.580;9.734;2023-04-24T10:05:31;99817.72;;;13.40;59.83
75192;BME280;63771;52.580;9.734;2023-04-24T10:08:02;99824.53;;;13.40;59.47
75192;BME280;63771;52.580;9.734;2023-04-24T10:10:29;99813.06;;;13.33;59.37
75192;BME280;63771;52.580;9.734;2023-04-24T10:12:55;99810.16;;;13.27;58.67
75192;BME280;63771;52.580;9.734;2023-04-24T10:15:21;99814.91;;;13.21;58.86
75192;BME280;63771;52.580;9.734;2023-04-24T10:17:50;99813.78;;;13.16;59.38
75192;BME280;63771;52.580;9.734;2023-04-24T10:20:23;99816.34;;;13.16;59.31
75192;BME280;63771;52.580;9.734;2023-04-24T10:22:50;99820.19;;;13.09;59.31
75192;BME280;63771;52.580;9.734;2023-04-24T10:25:18;99810.50;;;13.03;60.13
75192;BME280;63771;52.580;9.734;2023-04-24T10:27:44;99819.69;;;13.00;60.21
75192;BME280;63771;52.580;9.734;2023-04-24T10:30:12;99812.78;;;12.99;60.58
75192;BME280;63771;52.580;9.734;2023-04-24T10:32:37;99813.66;;;12.99;60.86
75192;BME280;63771;52.580;9.734;2023-04-24T10:35:03;99816.94;;;12.97;59.51
75192;BME280;63771;52.580;9.734;2023-04-24T10:37:28;99813.59;;;12.98;60.75
75192;BME280;63771;52.580;9.734;2023-04-24T10:40:00;99814.13;;;13.07;60.82
75192;BME280;63771;52.580;9.734;2023-04-24T10:42:27;99806.47;;;13.22;60.26
75192;BME280;63771;52.580;9.734;2023-04-24T10:44:52;99800.41;;;13.36;60.17
75192;BME280;63771;52.580;9.734;2023-04-24T10:47:19;99809.41;;;13.44;58.92
75192;BME280;63771;52.580;9.734;2023-04-24T10:49:45;99806.06;;;13.45;59.04
75192;BME280;63771;52.580;9.734;2023-04-24T10:52:10;99798.97;;;13.41;58.68
75192;BME280;63771;52.580;9.734;2023-04-24T10:59:43;99819.41;;;13.40;58.74
75192;BME280;63771;52.580;9.734;2023-04-24T11:02:09;99814.34;;;13.41;59.00
75192;BME280;63771;52.580;9.734;2023-04-24T11:04:35;99821.28;;;13.42;59.30
75192;BME280;63771;52.580;9.734;2023-04-24T11:07:02;99825.84;;;13.48;58.72
75192;BME280;63771;52.580;9.734;2023-04-24T11:09:30;99822.13;;;13.57;60.48
75192;BME280;63771;52.580;9.734;2023-04-24T11:12:07;99825.50;;;13.73;59.71
75192;BME280;63771;52.580;9.734;2023-04-24T11:20:00;99818.75;;;14.06;58.07
75192;BME280;63771;52.580;9.734;2023-04-24T11:22:27;99818.34;;;14.15;57.15
75192;BME280;63771;52.580;9.734;2023-04-24T11:24:56;99811.00;;;14.04;56.68
75192;BME280;63771;52.580;9.734;2023-04-24T11:27:22;99802.00;;;13.96;57.57
75192;BME280;63771;52.580;9.734;2023-04-24T11:29:49;99814.63;;;13.93;56.74
75192;BME280;63771;52.580;9.734;2023-04-24T11:34:55;99813.34;;;13.69;57.66
75192;BME280;63771;52.580;9.734;2023-04-24T11:37:22;99818.75;;;13.58;58.22
75192;BME280;63771;52.580;9.734;2023-04-24T11:39:57;99823.69;;;13.55;58.42
75192;BME280;63771;52.580;9.734;2023-04-24T11:42:23;99817.69;;;13.55;58.02
75192;BME280;63771;52.580;9.734;2023-04-24T11:44:49;99823.00;;;13.58;58.13
75192;BME280;63771;52.580;9.734;2023-04-24T11:47:15;99824.50;;;13.54;56.82
75192;BME280;63771;52.580;9.734;2023-04-24T11:49:40;99820.41;;;13.42;56.41
75192;BME280;63771;52.580;9.734;2023-04-24T11:52:06;99821.97;;;13.25;57.37
75192;BME280;63771;52.580;9.734;2023-04-24T11:54:31;99837.25;;;13.09;57.95
75192;BME280;63771;52.580;9.734;2023-04-24T11:56:57;99826.59;;;13.01;58.60
75192;BME280;63771;52.580;9.734;2023-04-24T11:59:23;99830.44;;;12.94;59.24
75192;BME280;63771;52.580;9.734;2023-04-24T12:01:49;99844.66;;;12.89;59.36
75192;BME280;63771;52.580;9.734;2023-04-24T12:04:16;99845.66;;;12.91;59.38
75192;BME280;63771;52.580;9.734;2023-04-24T12:07:03;99847.22;;;12.89;58.82
75192;BME280;63771;52.580;9.734;2023-04-24T12:09:54;99852.72;;;12.95;59.63
75192;BME280;63771;52.580;9.734;2023-04-24T12:12:20;99849.97;;;12.92;59.46
75192;BME280;63771;52.580;9.734;2023-04-24T12:14:50;99856.56;;;12.89;59.47
75192;BME280;63771;52.580;9.734;2023-04-24T12:17:17;99851.81;;;12.80;59.47
75192;BME280;63771;52.580;9.734;2023-04-24T12:19:48;99854.25;;;12.78;59.92
75192;BME280;63771;52.580;9.734;2023-04-24T12:22:14;99854.53;;;12.83;60.19
75192;BME280;63771;52.580;9.734;2023-04-24T12:25:03;99856.81;;;12.78;60.48
75192;BME280;63771;52.580;9.734;2023-04-24T12:27:33;99850.56;;;12.59;59.73
75192;BME280;63771;52.580;9.734;2023-04-24T12:30:01;99855.28;;;12.52;60.62
75192;BME280;63771;52.580;9.734;2023-04-24T12:32:27;99859.72;;;12.55;61.17
75192;BME280;63771;52.580;9.734;2023-04-24T12:34:54;99856.34;;;12.56;60.72
75192;BME280;63771;52.580;9.734;2023-04-24T12:37:20;99859.19;;;12.61;61.57
75192;BME280;63771;52.580;9.734;2023-04-24T12:40:08;99858.31;;;12.60;60.76
75192;BME280;63771;52.580;9.734;2023-04-24T12:42:42;99861.16;;;12.65;61.12
75192;BME280;63771;52.580;9.734;2023-04-24T12:45:07;99865.91;;;12.59;60.86
75192;BME280;63771;52.580;9.734;2023-04-24T12:47:34;99860.91;;;12.47;60.80
75192;BME280;63771;52.580;9.734;2023-04-24T12:50:01;99874.41;;;12.44;60.96
75192;BME280;63771;52.580;9.734;2023-04-24T12:52:28;99875.34;;;12.32;61.75
75192;BME280;63771;52.580;9.734;2023-04-24T12:54:56;99881.75;;;12.25;62.33
75192;BME280;63771;52.580;9.734;2023-04-24T12:57:22;99886.47;;;12.32;62.52
75192;BME280;63771;52.580;9.734;2023-04-24T12:59:48;99888.78;;;12.42;62.34
75192;BME280;63771;52.580;9.734;2023-04-24T13:02:13;99893.22;;;12.32;61.83
75192;BME280;63771;52.580;9.734;2023-04-24T13:04:42;99902.31;;;12.26;62.54
75192;BME280;63771;52.580;9.734;2023-04-24T13:07:07;99915.34;;;12.16;63.17
75192;BME280;63771;52.580;9.734;2023-04-24T13:09:34;99905.22;;;12.05;64.64